This is the latest recevied weather packets stored in our database for station/object JA0BES-13. If no packets are shown the sender has not sent any weather packets the latest 10 day(s).
| Time | Temp. | Humidity | Pressure | Rain* | Wind** | Luminosity | Snow |
|---|---|---|---|---|---|---|---|
| 1777680137 | 16.67° C | 67% | 1005.7 hPa | 3.3 mm | - | - | - |
| 1777679537 | 16.11° C | 73% | 1005.6 hPa | 3.3 mm | - | - | - |
| 1777678937 | 15.56° C | 71% | 1005.5 hPa | 3.3 mm | - | - | - |
| 1777678337 | 15.56° C | 76% | 1005.2 hPa | 3.3 mm | - | - | - |
| 1777677736 | 15° C | 79% | 1005.3 hPa | 3.3 mm | - | - | - |
| 1777677136 | 15° C | 80% | 1005.1 hPa | 3.3 mm | - | - | - |
| 1777676535 | 14.44° C | 79% | 1005.2 hPa | 3.3 mm | - | - | - |
| 1777675935 | 14.44° C | 81% | 1005.1 hPa | 3.3 mm | - | - | - |
| 1777675335 | 14.44° C | 82% | 1005.1 hPa | 3.3 mm | - | - | - |
| 1777674735 | 13.89° C | 82% | 1004.9 hPa | 3.3 mm | - | - | - |
| 1777674135 | 13.89° C | 86% | 1004.7 hPa | 3.3 mm | - | - | - |
| 1777673534 | 13.33° C | 89% | 1004.8 hPa | 3.3 mm | - | - | - |
| 1777672933 | 13.33° C | 89% | 1004.8 hPa | 3.3 mm | - | - | - |
| 1777672333 | 13.33° C | 95% | 1004.5 hPa | 3.3 mm | - | - | - |
| 1777671732 | 12.78° C | 98% | 1004.3 hPa | 3.3 mm | - | - | - |
| 1777671132 | 11.67° C | 100% | 1004 hPa | 3.3 mm | - | - | - |
| 1777670532 | 11.11° C | 100% | 1004 hPa | 3.3 mm | - | - | - |
| 1777669932 | 11.11° C | 100% | 1003.8 hPa | 3.3 mm | - | - | - |
| 1777669331 | 10.56° C | 100% | 1003.7 hPa | 3.3 mm | - | - | - |
| 1777640514 | 11.67° C | 100% | 995.3 hPa | 19.56 mm | - | - | - |
| 1777639914 | 11.67° C | 100% | 995.1 hPa | 19.56 mm | - | - | - |
| 1777639313 | 11.67° C | 100% | 994.9 hPa | 19.56 mm | - | - | - |
| 1777638713 | 11.67° C | 100% | 994.9 hPa | 19.56 mm | - | - | - |
| 1777638112 | 11.67° C | 100% | 994.6 hPa | 19.56 mm | - | - | - |
| 1777637512 | 11.67° C | 100% | 994.6 hPa | 19.56 mm | - | - | - |
* Rain since midnight (hover to see other rain measurements)
** Current wind speed in m/s (hover to see current wind gust speed)